sensor_id;sensor_type;location;lat;lon;timestamp;P1;durP1;ratioP1;P2;durP2;ratioP2
11817;SDS011;5966;52.402;5.322;2023-09-30T00:02:27;10.37;;;3.10;;
11817;SDS011;5966;52.402;5.322;2023-09-30T00:04:56;7.30;;;3.00;;
11817;SDS011;5966;52.402;5.322;2023-09-30T00:07:24;7.07;;;3.00;;
11817;SDS011;5966;52.402;5.322;2023-09-30T00:09:53;9.70;;;3.17;;
11817;SDS011;5966;52.402;5.322;2023-09-30T00:12:21;5.97;;;2.53;;
11817;SDS011;5966;52.402;5.322;2023-09-30T00:14:50;9.97;;;3.10;;
11817;SDS011;5966;52.402;5.322;2023-09-30T00:17:19;8.60;;;2.80;;
11817;SDS011;5966;52.402;5.322;2023-09-30T00:19:48;5.50;;;2.87;;
11817;SDS011;5966;52.402;5.322;2023-09-30T00:22:16;7.50;;;3.10;;
11817;SDS011;5966;52.402;5.322;2023-09-30T00:24:44;7.53;;;3.33;;
11817;SDS011;5966;52.402;5.322;2023-09-30T00:27:13;6.00;;;2.57;;
11817;SDS011;5966;52.402;5.322;2023-09-30T00:29:41;9.40;;;3.00;;
11817;SDS011;5966;52.402;5.322;2023-09-30T00:32:10;9.10;;;3.57;;
11817;SDS011;5966;52.402;5.322;2023-09-30T00:34:39;6.43;;;2.80;;
11817;SDS011;5966;52.402;5.322;2023-09-30T00:37:07;7.27;;;2.77;;
11817;SDS011;5966;52.402;5.322;2023-09-30T00:39:35;7.60;;;3.10;;
11817;SDS011;5966;52.402;5.322;2023-09-30T00:42:03;9.27;;;2.90;;
11817;SDS011;5966;52.402;5.322;2023-09-30T00:44:32;8.67;;;3.00;;
11817;SDS011;5966;52.402;5.322;2023-09-30T00:47:00;6.00;;;2.77;;
11817;SDS011;5966;52.402;5.322;2023-09-30T00:49:30;8.17;;;3.43;;
11817;SDS011;5966;52.402;5.322;2023-09-30T00:52:00;5.87;;;3.03;;
11817;SDS011;5966;52.402;5.322;2023-09-30T00:54:29;6.87;;;2.87;;
11817;SDS011;5966;52.402;5.322;2023-09-30T00:56:58;8.80;;;3.10;;
11817;SDS011;5966;52.402;5.322;2023-09-30T00:59:28;8.23;;;3.20;;
11817;SDS011;5966;52.402;5.322;2023-09-30T01:01:58;5.30;;;3.47;;
11817;SDS011;5966;52.402;5.322;2023-09-30T01:04:29;7.70;;;2.57;;
11817;SDS011;5966;52.402;5.322;2023-09-30T01:06:58;6.57;;;2.90;;
11817;SDS011;5966;52.402;5.322;2023-09-30T01:09:26;10.20;;;3.23;;
11817;SDS011;5966;52.402;5.322;2023-09-30T01:11:54;6.43;;;2.80;;
11817;SDS011;5966;52.402;5.322;2023-09-30T01:14:26;7.07;;;3.13;;
11817;SDS011;5966;52.402;5.322;2023-09-30T01:16:55;7.40;;;3.00;;
11817;SDS011;5966;52.402;5.322;2023-09-30T01:19:24;8.90;;;3.23;;
11817;SDS011;5966;52.402;5.322;2023-09-30T01:21:54;7.03;;;3.03;;
11817;SDS011;5966;52.402;5.322;2023-09-30T01:24:26;7.57;;;3.20;;
11817;SDS011;5966;52.402;5.322;2023-09-30T01:26:54;8.20;;;3.27;;
11817;SDS011;5966;52.402;5.322;2023-09-30T01:29:23;3.50;;;2.80;;
11817;SDS011;5966;52.402;5.322;2023-09-30T01:31:52;6.90;;;2.80;;
11817;SDS011;5966;52.402;5.322;2023-09-30T01:34:20;5.70;;;2.60;;
11817;SDS011;5966;52.402;5.322;2023-09-30T01:36:49;11.23;;;3.63;;
11817;SDS011;5966;52.402;5.322;2023-09-30T01:39:19;9.83;;;3.43;;
11817;SDS011;5966;52.402;5.322;2023-09-30T01:41:47;11.17;;;3.67;;
11817;SDS011;5966;52.402;5.322;2023-09-30T01:44:15;7.00;;;3.07;;
11817;SDS011;5966;52.402;5.322;2023-09-30T01:46:44;6.33;;;3.00;;
11817;SDS011;5966;52.402;5.322;2023-09-30T01:49:12;7.13;;;3.60;;
11817;SDS011;5966;52.402;5.322;2023-09-30T01:51:40;8.63;;;3.13;;
11817;SDS011;5966;52.402;5.322;2023-09-30T01:54:12;5.87;;;3.03;;
11817;SDS011;5966;52.402;5.322;2023-09-30T01:56:41;7.80;;;3.10;;
11817;SDS011;5966;52.402;5.322;2023-09-30T01:59:10;4.93;;;3.20;;
11817;SDS011;5966;52.402;5.322;2023-09-30T02:01:38;7.60;;;2.97;;
11817;SDS011;5966;52.402;5.322;2023-09-30T02:04:06;9.13;;;3.40;;
11817;SDS011;5966;52.402;5.322;2023-09-30T02:06:34;10.60;;;3.43;;
11817;SDS011;5966;52.402;5.322;2023-09-30T02:09:02;8.33;;;3.77;;
11817;SDS011;5966;52.402;5.322;2023-09-30T02:11:34;5.83;;;3.73;;
11817;SDS011;5966;52.402;5.322;2023-09-30T02:14:04;7.97;;;3.50;;
11817;SDS011;5966;52.402;5.322;2023-09-30T02:16:33;8.10;;;3.40;;
11817;SDS011;5966;52.402;5.322;2023-09-30T02:19:02;7.60;;;3.70;;
11817;SDS011;5966;52.402;5.322;2023-09-30T02:21:30;8.80;;;3.63;;
11817;SDS011;5966;52.402;5.322;2023-09-30T02:23:58;8.07;;;3.83;;
11817;SDS011;5966;52.402;5.322;2023-09-30T02:26:26;7.33;;;3.90;;
11817;SDS011;5966;52.402;5.322;2023-09-30T02:28:55;9.50;;;3.40;;
11817;SDS011;5966;52.402;5.322;2023-09-30T02:31:25;7.70;;;3.53;;
11817;SDS011;5966;52.402;5.322;2023-09-30T02:33:53;8.47;;;4.20;;
11817;SDS011;5966;52.402;5.322;2023-09-30T02:36:22;7.27;;;3.70;;
11817;SDS011;5966;52.402;5.322;2023-09-30T02:38:50;7.40;;;4.00;;
11817;SDS011;5966;52.402;5.322;2023-09-30T02:41:19;7.53;;;4.00;;
11817;SDS011;5966;52.402;5.322;2023-09-30T02:43:47;10.60;;;4.03;;
11817;SDS011;5966;52.402;5.322;2023-09-30T02:46:16;6.77;;;3.87;;
11817;SDS011;5966;52.402;5.322;2023-09-30T02:48:45;11.67;;;3.97;;
11817;SDS011;5966;52.402;5.322;2023-09-30T02:51:13;7.93;;;4.10;;
11817;SDS011;5966;52.402;5.322;2023-09-30T02:53:41;8.67;;;4.00;;
11817;SDS011;5966;52.402;5.322;2023-09-30T02:56:10;13.27;;;4.77;;
11817;SDS011;5966;52.402;5.322;2023-09-30T02:58:38;8.03;;;4.63;;
11817;SDS011;5966;52.402;5.322;2023-09-30T03:01:06;9.03;;;4.47;;
11817;SDS011;5966;52.402;5.322;2023-09-30T03:03:36;7.80;;;3.87;;
11817;SDS011;5966;52.402;5.322;2023-09-30T03:06:07;8.97;;;4.23;;
11817;SDS011;5966;52.402;5.322;2023-09-30T03:08:37;7.90;;;4.00;;
11817;SDS011;5966;52.402;5.322;2023-09-30T03:11:05;6.60;;;4.00;;
11817;SDS011;5966;52.402;5.322;2023-09-30T03:13:33;6.63;;;4.20;;
11817;SDS011;5966;52.402;5.322;2023-09-30T03:16:02;11.43;;;4.90;;
11817;SDS011;5966;52.402;5.322;2023-09-30T03:18:30;5.90;;;4.23;;
11817;SDS011;5966;52.402;5.322;2023-09-30T03:20:58;8.50;;;4.30;;
11817;SDS011;5966;52.402;5.322;2023-09-30T03:23:29;6.03;;;4.27;;
11817;SDS011;5966;52.402;5.322;2023-09-30T03:25:57;9.53;;;4.67;;
11817;SDS011;5966;52.402;5.322;2023-09-30T03:28:26;6.73;;;4.17;;
11817;SDS011;5966;52.402;5.322;2023-09-30T03:30:55;9.27;;;4.40;;
11817;SDS011;5966;52.402;5.322;2023-09-30T03:33:23;8.10;;;4.53;;
11817;SDS011;5966;52.402;5.322;2023-09-30T03:35:53;9.60;;;4.43;;
11817;SDS011;5966;52.402;5.322;2023-09-30T03:38:21;8.67;;;5.00;;
11817;SDS011;5966;52.402;5.322;2023-09-30T03:40:50;7.53;;;4.67;;
11817;SDS011;5966;52.402;5.322;2023-09-30T03:43:21;10.53;;;5.00;;
11817;SDS011;5966;52.402;5.322;2023-09-30T03:45:49;12.97;;;5.10;;
11817;SDS011;5966;52.402;5.322;2023-09-30T03:48:17;7.17;;;4.70;;
11817;SDS011;5966;52.402;5.322;2023-09-30T03:50:46;6.63;;;4.57;;
11817;SDS011;5966;52.402;5.322;2023-09-30T03:53:14;9.00;;;5.30;;
11817;SDS011;5966;52.402;5.322;2023-09-30T03:55:42;9.07;;;5.17;;
11817;SDS011;5966;52.402;5.322;2023-09-30T03:58:13;8.43;;;5.17;;
11817;SDS011;5966;52.402;5.322;2023-09-30T04:00:41;6.97;;;5.00;;
11817;SDS011;5966;52.402;5.322;2023-09-30T04:03:10;10.07;;;5.53;;
11817;SDS011;5966;52.402;5.322;2023-09-30T04:05:38;8.33;;;5.03;;
11817;SDS011;5966;52.402;5.322;2023-09-30T04:08:06;8.13;;;5.10;;
11817;SDS011;5966;52.402;5.322;2023-09-30T04:10:34;9.17;;;5.40;;
11817;SDS011;5966;52.402;5.322;2023-09-30T04:13:03;8.53;;;5.90;;
11817;SDS011;5966;52.402;5.322;2023-09-30T04:15:32;10.10;;;5.80;;
11817;SDS011;5966;52.402;5.322;2023-09-30T04:18:03;10.87;;;6.10;;
11817;SDS011;5966;52.402;5.322;2023-09-30T04:20:32;9.67;;;6.20;;
11817;SDS011;5966;52.402;5.322;2023-09-30T04:23:00;10.23;;;6.13;;
11817;SDS011;5966;52.402;5.322;2023-09-30T04:25:28;9.40;;;6.53;;
11817;SDS011;5966;52.402;5.322;2023-09-30T04:27:56;8.97;;;5.80;;
11817;SDS011;5966;52.402;5.322;2023-09-30T04:30:25;10.87;;;6.37;;
11817;SDS011;5966;52.402;5.322;2023-09-30T04:32:55;11.20;;;6.30;;
11817;SDS011;5966;52.402;5.322;2023-09-30T04:35:25;10.60;;;6.13;;
11817;SDS011;5966;52.402;5.322;2023-09-30T04:37:53;13.03;;;6.47;;
11817;SDS011;5966;52.402;5.322;2023-09-30T04:40:21;9.37;;;6.40;;
11817;SDS011;5966;52.402;5.322;2023-09-30T04:42:49;11.30;;;6.60;;
11817;SDS011;5966;52.402;5.322;2023-09-30T04:45:17;12.13;;;6.67;;
11817;SDS011;5966;52.402;5.322;2023-09-30T04:47:47;8.43;;;6.47;;
11817;SDS011;5966;52.402;5.322;2023-09-30T04:50:18;13.10;;;6.57;;
11817;SDS011;5966;52.402;5.322;2023-09-30T04:52:49;12.43;;;6.93;;
11817;SDS011;5966;52.402;5.322;2023-09-30T04:55:18;8.90;;;5.93;;
11817;SDS011;5966;52.402;5.322;2023-09-30T04:57:46;12.00;;;7.00;;
11817;SDS011;5966;52.402;5.322;2023-09-30T05:00:15;10.60;;;6.70;;
11817;SDS011;5966;52.402;5.322;2023-09-30T05:02:45;11.87;;;6.20;;
11817;SDS011;5966;52.402;5.322;2023-09-30T05:05:14;11.23;;;6.47;;
11817;SDS011;5966;52.402;5.322;2023-09-30T05:07:44;10.03;;;6.83;;
11817;SDS011;5966;52.402;5.322;2023-09-30T05:10:14;11.37;;;7.17;;
11817;SDS011;5966;52.402;5.322;2023-09-30T05:12:43;10.53;;;7.43;;
11817;SDS011;5966;52.402;5.322;2023-09-30T05:15:14;11.97;;;7.33;;
11817;SDS011;5966;52.402;5.322;2023-09-30T05:17:43;10.60;;;7.73;;
11817;SDS011;5966;52.402;5.322;2023-09-30T05:20:13;10.20;;;6.93;;
11817;SDS011;5966;52.402;5.322;2023-09-30T05:22:45;8.17;;;6.53;;
11817;SDS011;5966;52.402;5.322;2023-09-30T05:25:15;10.40;;;7.30;;
11817;SDS011;5966;52.402;5.322;2023-09-30T05:27:45;10.33;;;6.80;;
11817;SDS011;5966;52.402;5.322;2023-09-30T05:30:15;9.27;;;7.23;;
11817;SDS011;5966;52.402;5.322;2023-09-30T05:32:46;11.70;;;7.63;;
11817;SDS011;5966;52.402;5.322;2023-09-30T05:35:14;16.50;;;7.60;;
11817;SDS011;5966;52.402;5.322;2023-09-30T05:37:45;12.97;;;7.70;;
11817;SDS011;5966;52.402;5.322;2023-09-30T05:40:14;10.93;;;7.90;;
11817;SDS011;5966;52.402;5.322;2023-09-30T05:42:49;12.33;;;7.40;;
11817;SDS011;5966;52.402;5.322;2023-09-30T05:45:19;12.53;;;7.83;;
11817;SDS011;5966;52.402;5.322;2023-09-30T05:47:47;11.70;;;7.87;;
11817;SDS011;5966;52.402;5.322;2023-09-30T05:50:18;11.43;;;7.30;;
11817;SDS011;5966;52.402;5.322;2023-09-30T05:52:53;11.47;;;7.23;;
11817;SDS011;5966;52.402;5.322;2023-09-30T05:55:22;14.80;;;8.33;;
11817;SDS011;5966;52.402;5.322;2023-09-30T05:57:55;9.97;;;7.47;;
11817;SDS011;5966;52.402;5.322;2023-09-30T06:00:23;12.17;;;8.40;;
11817;SDS011;5966;52.402;5.322;2023-09-30T06:02:56;11.30;;;7.43;;
11817;SDS011;5966;52.402;5.322;2023-09-30T06:05:25;11.70;;;7.60;;
11817;SDS011;5966;52.402;5.322;2023-09-30T06:07:58;11.43;;;7.57;;
11817;SDS011;5966;52.402;5.322;2023-09-30T06:10:29;10.80;;;7.40;;
11817;SDS011;5966;52.402;5.322;2023-09-30T06:12:58;8.40;;;7.23;;
11817;SDS011;5966;52.402;5.322;2023-09-30T06:15:26;11.47;;;7.97;;
11817;SDS011;5966;52.402;5.322;2023-09-30T06:17:54;13.23;;;8.07;;
11817;SDS011;5966;52.402;5.322;2023-09-30T06:20:23;12.33;;;7.67;;
11817;SDS011;5966;52.402;5.322;2023-09-30T06:22:54;12.33;;;8.03;;
11817;SDS011;5966;52.402;5.322;2023-09-30T06:25:23;14.00;;;8.00;;
11817;SDS011;5966;52.402;5.322;2023-09-30T06:27:52;11.97;;;7.93;;
11817;SDS011;5966;52.402;5.322;2023-09-30T06:30:21;14.00;;;7.83;;
11817;SDS011;5966;52.402;5.322;2023-09-30T06:32:57;10.87;;;7.70;;
11817;SDS011;5966;52.402;5.322;2023-09-30T06:35:27;11.43;;;8.00;;
11817;SDS011;5966;52.402;5.322;2023-09-30T06:37:57;10.17;;;7.23;;
11817;SDS011;5966;52.402;5.322;2023-09-30T06:40:27;11.00;;;8.00;;
11817;SDS011;5966;52.402;5.322;2023-09-30T06:43:02;11.13;;;7.23;;
11817;SDS011;5966;52.402;5.322;2023-09-30T06:45:31;11.40;;;8.33;;
11817;SDS011;5966;52.402;5.322;2023-09-30T06:48:00;10.83;;;7.93;;
11817;SDS011;5966;52.402;5.322;2023-09-30T06:50:28;10.57;;;8.00;;
11817;SDS011;5966;52.402;5.322;2023-09-30T06:52:58;12.37;;;8.67;;
11817;SDS011;5966;52.402;5.322;2023-09-30T06:55:35;11.33;;;7.90;;
11817;SDS011;5966;52.402;5.322;2023-09-30T06:58:04;12.00;;;7.97;;
11817;SDS011;5966;52.402;5.322;2023-09-30T07:00:33;10.53;;;7.50;;
11817;SDS011;5966;52.402;5.322;2023-09-30T07:03:05;11.97;;;8.30;;
11817;SDS011;5966;52.402;5.322;2023-09-30T07:05:33;11.30;;;8.13;;
11817;SDS011;5966;52.402;5.322;2023-09-30T07:08:03;12.43;;;7.90;;
11817;SDS011;5966;52.402;5.322;2023-09-30T07:10:33;11.17;;;7.60;;
11817;SDS011;5966;52.402;5.322;2023-09-30T07:13:02;11.20;;;8.00;;
11817;SDS011;5966;52.402;5.322;2023-09-30T07:15:33;15.17;;;8.80;;
11817;SDS011;5966;52.402;5.322;2023-09-30T07:18:02;11.60;;;8.07;;
11817;SDS011;5966;52.402;5.322;2023-09-30T07:20:30;9.97;;;7.40;;
11817;SDS011;5966;52.402;5.322;2023-09-30T07:23:00;12.63;;;8.73;;
11817;SDS011;5966;52.402;5.322;2023-09-30T07:25:47;14.40;;;7.73;;
11817;SDS011;5966;52.402;5.322;2023-09-30T07:28:15;10.77;;;7.73;;
11817;SDS011;5966;52.402;5.322;2023-09-30T07:30:43;11.43;;;8.17;;
11817;SDS011;5966;52.402;5.322;2023-09-30T07:33:12;11.70;;;8.27;;
11817;SDS011;5966;52.402;5.322;2023-09-30T07:35:40;13.03;;;8.13;;
11817;SDS011;5966;52.402;5.322;2023-09-30T07:38:09;11.23;;;8.37;;
11817;SDS011;5966;52.402;5.322;2023-09-30T07:40:37;13.07;;;8.17;;
11817;SDS011;5966;52.402;5.322;2023-09-30T07:43:08;12.17;;;7.83;;
11817;SDS011;5966;52.402;5.322;2023-09-30T07:45:39;12.13;;;7.93;;
11817;SDS011;5966;52.402;5.322;2023-09-30T07:48:09;11.50;;;7.50;;
11817;SDS011;5966;52.402;5.322;2023-09-30T07:50:37;10.67;;;7.93;;
11817;SDS011;5966;52.402;5.322;2023-09-30T07:53:05;10.60;;;7.83;;
11817;SDS011;5966;52.402;5.322;2023-09-30T07:55:36;14.83;;;8.20;;
11817;SDS011;5966;52.402;5.322;2023-09-30T07:58:06;13.53;;;7.33;;
11817;SDS011;5966;52.402;5.322;2023-09-30T08:00:37;12.23;;;8.23;;
11817;SDS011;5966;52.402;5.322;2023-09-30T08:03:09;14.07;;;8.53;;
11817;SDS011;5966;52.402;5.322;2023-09-30T08:05:38;11.10;;;7.90;;
11817;SDS011;5966;52.402;5.322;2023-09-30T08:08:08;13.97;;;7.40;;
11817;SDS011;5966;52.402;5.322;2023-09-30T08:10:36;15.30;;;7.57;;
11817;SDS011;5966;52.402;5.322;2023-09-30T08:13:06;12.17;;;7.27;;
11817;SDS011;5966;52.402;5.322;2023-09-30T08:15:37;10.03;;;6.97;;
11817;SDS011;5966;52.402;5.322;2023-09-30T08:18:05;9.00;;;6.97;;
11817;SDS011;5966;52.402;5.322;2023-09-30T08:20:35;12.30;;;7.20;;
11817;SDS011;5966;52.402;5.322;2023-09-30T08:23:03;10.73;;;7.20;;
11817;SDS011;5966;52.402;5.322;2023-09-30T08:25:31;11.30;;;6.40;;
11817;SDS011;5966;52.402;5.322;2023-09-30T08:28:01;12.83;;;6.90;;
11817;SDS011;5966;52.402;5.322;2023-09-30T08:30:30;13.23;;;6.90;;
11817;SDS011;5966;52.402;5.322;2023-09-30T08:33:00;10.93;;;6.47;;
11817;SDS011;5966;52.402;5.322;2023-09-30T08:35:30;13.03;;;7.63;;
11817;SDS011;5966;52.402;5.322;2023-09-30T08:37:59;11.80;;;6.73;;
11817;SDS011;5966;52.402;5.322;2023-09-30T08:40:28;9.40;;;6.03;;
11817;SDS011;5966;52.402;5.322;2023-09-30T08:42:57;14.23;;;6.40;;
11817;SDS011;5966;52.402;5.322;2023-09-30T08:45:27;11.13;;;6.60;;
11817;SDS011;5966;52.402;5.322;2023-09-30T08:47:57;10.27;;;5.70;;
11817;SDS011;5966;52.402;5.322;2023-09-30T08:50:33;10.30;;;6.07;;
11817;SDS011;5966;52.402;5.322;2023-09-30T08:53:05;12.83;;;6.70;;
11817;SDS011;5966;52.402;5.322;2023-09-30T08:55:34;8.90;;;5.63;;
11817;SDS011;5966;52.402;5.322;2023-09-30T08:58:08;9.80;;;5.90;;
11817;SDS011;5966;52.402;5.322;2023-09-30T09:00:36;10.87;;;5.67;;
11817;SDS011;5966;52.402;5.322;2023-09-30T09:03:07;11.37;;;5.83;;
11817;SDS011;5966;52.402;5.322;2023-09-30T09:05:40;14.03;;;5.43;;
11817;SDS011;5966;52.402;5.322;2023-09-30T09:08:08;8.93;;;4.97;;
11817;SDS011;5966;52.402;5.322;2023-09-30T09:10:41;9.67;;;4.83;;
11817;SDS011;5966;52.402;5.322;2023-09-30T09:13:23;10.00;;;5.07;;
11817;SDS011;5966;52.402;5.322;2023-09-30T09:16:05;7.03;;;4.40;;
11817;SDS011;5966;52.402;5.322;2023-09-30T09:18:34;10.20;;;5.03;;
11817;SDS011;5966;52.402;5.322;2023-09-30T09:21:11;9.83;;;4.13;;
11817;SDS011;5966;52.402;5.322;2023-09-30T09:23:41;9.27;;;3.97;;
11817;SDS011;5966;52.402;5.322;2023-09-30T09:26:10;8.13;;;4.23;;
11817;SDS011;5966;52.402;5.322;2023-09-30T09:28:39;7.77;;;3.90;;
11817;SDS011;5966;52.402;5.322;2023-09-30T09:31:21;7.43;;;3.70;;
11817;SDS011;5966;52.402;5.322;2023-09-30T09:33:50;8.93;;;3.77;;
11817;SDS011;5966;52.402;5.322;2023-09-30T09:36:22;8.33;;;4.30;;
11817;SDS011;5966;52.402;5.322;2023-09-30T09:39:06;7.07;;;3.47;;
11817;SDS011;5966;52.402;5.322;2023-09-30T09:41:38;9.63;;;3.77;;
11817;SDS011;5966;52.402;5.322;2023-09-30T09:44:18;7.37;;;3.17;;
11817;SDS011;5966;52.402;5.322;2023-09-30T09:46:47;8.60;;;3.70;;
11817;SDS011;5966;52.402;5.322;2023-09-30T09:49:17;6.67;;;3.37;;
11817;SDS011;5966;52.402;5.322;2023-09-30T09:51:48;5.77;;;2.80;;
11817;SDS011;5966;52.402;5.322;2023-09-30T09:54:16;7.40;;;3.20;;
11817;SDS011;5966;52.402;5.322;2023-09-30T09:56:45;6.03;;;3.43;;
11817;SDS011;5966;52.402;5.322;2023-09-30T09:59:13;8.20;;;3.27;;
11817;SDS011;5966;52.402;5.322;2023-09-30T10:01:41;7.77;;;3.13;;
11817;SDS011;5966;52.402;5.322;2023-09-30T10:04:11;6.43;;;3.10;;
11817;SDS011;5966;52.402;5.322;2023-09-30T10:06:41;9.00;;;3.20;;
11817;SDS011;5966;52.402;5.322;2023-09-30T10:09:16;6.90;;;2.90;;
11817;SDS011;5966;52.402;5.322;2023-09-30T10:11:46;8.70;;;2.87;;
11817;SDS011;5966;52.402;5.322;2023-09-30T10:14:29;8.20;;;2.90;;
11817;SDS011;5966;52.402;5.322;2023-09-30T10:17:00;6.60;;;2.80;;
11817;SDS011;5966;52.402;5.322;2023-09-30T10:19:30;6.57;;;2.53;;
11817;SDS011;5966;52.402;5.322;2023-09-30T10:24:53;6.43;;;2.60;;
11817;SDS011;5966;52.402;5.322;2023-09-30T10:27:33;5.67;;;2.30;;
11817;SDS011;5966;52.402;5.322;2023-09-30T10:30:07;6.20;;;2.50;;
11817;SDS011;5966;52.402;5.322;2023-09-30T10:35:45;6.63;;;2.37;;
11817;SDS011;5966;52.402;5.322;2023-09-30T10:41:08;7.80;;;2.50;;
11817;SDS011;5966;52.402;5.322;2023-09-30T10:43:39;7.83;;;2.80;;
11817;SDS011;5966;52.402;5.322;2023-09-30T10:49:16;5.93;;;3.50;;
11817;SDS011;5966;52.402;5.322;2023-09-30T10:51:58;5.57;;;3.10;;
11817;SDS011;5966;52.402;5.322;2023-09-30T10:54:29;7.60;;;3.20;;
11817;SDS011;5966;52.402;5.322;2023-09-30T10:57:04;6.50;;;3.30;;
11817;SDS011;5966;52.402;5.322;2023-09-30T10:59:33;9.93;;;3.70;;
11817;SDS011;5966;52.402;5.322;2023-09-30T11:02:02;7.23;;;3.57;;
11817;SDS011;5966;52.402;5.322;2023-09-30T11:04:45;10.87;;;3.50;;
11817;SDS011;5966;52.402;5.322;2023-09-30T11:07:17;9.57;;;3.50;;
11817;SDS011;5966;52.402;5.322;2023-09-30T11:09:50;8.87;;;3.53;;
11817;SDS011;5966;52.402;5.322;2023-09-30T11:12:23;8.60;;;3.50;;
11817;SDS011;5966;52.402;5.322;2023-09-30T11:14:58;9.50;;;3.60;;
11817;SDS011;5966;52.402;5.322;2023-09-30T11:17:30;6.97;;;3.50;;
11817;SDS011;5966;52.402;5.322;2023-09-30T11:19:58;5.77;;;3.20;;
11817;SDS011;5966;52.402;5.322;2023-09-30T11:22:34;8.00;;;2.93;;
11817;SDS011;5966;52.402;5.322;2023-09-30T11:25:03;9.77;;;3.13;;
11817;SDS011;5966;52.402;5.322;2023-09-30T11:27:35;6.13;;;3.00;;
11817;SDS011;5966;52.402;5.322;2023-09-30T11:30:07;3.73;;;2.23;;
11817;SDS011;5966;52.402;5.322;2023-09-30T11:32:40;6.20;;;2.23;;
11817;SDS011;5966;52.402;5.322;2023-09-30T11:35:09;9.00;;;2.27;;
11817;SDS011;5966;52.402;5.322;2023-09-30T11:37:51;7.60;;;2.23;;
11817;SDS011;5966;52.402;5.322;2023-09-30T11:40:20;7.23;;;2.27;;
11817;SDS011;5966;52.402;5.322;2023-09-30T11:43:10;4.83;;;2.50;;
11817;SDS011;5966;52.402;5.322;2023-09-30T11:45:39;4.50;;;1.80;;
11817;SDS011;5966;52.402;5.322;2023-09-30T11:48:16;5.07;;;1.90;;
11817;SDS011;5966;52.402;5.322;2023-09-30T11:50:47;5.60;;;1.90;;
11817;SDS011;5966;52.402;5.322;2023-09-30T11:53:16;6.90;;;2.07;;
11817;SDS011;5966;52.402;5.322;2023-09-30T11:55:47;6.27;;;2.53;;
11817;SDS011;5966;52.402;5.322;2023-09-30T11:58:17;4.53;;;2.17;;
11817;SDS011;5966;52.402;5.322;2023-09-30T12:00:46;7.50;;;2.70;;
11817;SDS011;5966;52.402;5.322;2023-09-30T12:03:17;5.63;;;2.70;;
11817;SDS011;5966;52.402;5.322;2023-09-30T12:05:49;8.33;;;2.83;;
11817;SDS011;5966;52.402;5.322;2023-09-30T12:08:17;6.23;;;2.80;;
11817;SDS011;5966;52.402;5.322;2023-09-30T12:10:46;6.70;;;2.80;;
11817;SDS011;5966;52.402;5.322;2023-09-30T12:13:21;5.63;;;2.43;;
11817;SDS011;5966;52.402;5.322;2023-09-30T12:15:49;9.47;;;2.77;;
11817;SDS011;5966;52.402;5.322;2023-09-30T12:18:20;7.60;;;2.73;;
11817;SDS011;5966;52.402;5.322;2023-09-30T12:20:50;7.30;;;3.10;;
11817;SDS011;5966;52.402;5.322;2023-09-30T12:23:21;6.27;;;2.70;;
11817;SDS011;5966;52.402;5.322;2023-09-30T12:25:50;9.87;;;2.83;;
11817;SDS011;5966;52.402;5.322;2023-09-30T12:28:41;8.90;;;3.30;;
11817;SDS011;5966;52.402;5.322;2023-09-30T12:31:10;8.97;;;2.77;;
11817;SDS011;5966;52.402;5.322;2023-09-30T12:33:41;6.30;;;2.80;;
11817;SDS011;5966;52.402;5.322;2023-09-30T12:36:10;5.00;;;2.67;;
11817;SDS011;5966;52.402;5.322;2023-09-30T12:38:40;8.70;;;3.00;;
11817;SDS011;5966;52.402;5.322;2023-09-30T12:41:08;8.67;;;3.50;;
11817;SDS011;5966;52.402;5.322;2023-09-30T12:43:37;7.00;;;2.70;;
11817;SDS011;5966;52.402;5.322;2023-09-30T12:46:12;8.03;;;3.20;;
11817;SDS011;5966;52.402;5.322;2023-09-30T12:48:41;7.47;;;2.90;;
11817;SDS011;5966;52.402;5.322;2023-09-30T12:51:11;7.73;;;2.60;;
11817;SDS011;5966;52.402;5.322;2023-09-30T12:53:41;6.13;;;2.60;;
11817;SDS011;5966;52.402;5.322;2023-09-30T12:56:11;6.77;;;2.70;;
11817;SDS011;5966;52.402;5.322;2023-09-30T12:58:40;6.90;;;2.53;;
11817;SDS011;5966;52.402;5.322;2023-09-30T13:01:08;6.37;;;2.67;;
11817;SDS011;5966;52.402;5.322;2023-09-30T13:03:50;5.80;;;2.73;;
11817;SDS011;5966;52.402;5.322;2023-09-30T13:06:19;5.93;;;2.20;;
11817;SDS011;5966;52.402;5.322;2023-09-30T13:08:48;6.23;;;2.53;;
11817;SDS011;5966;52.402;5.322;2023-09-30T13:11:16;7.30;;;2.67;;
11817;SDS011;5966;52.402;5.322;2023-09-30T13:13:46;4.97;;;1.97;;
11817;SDS011;5966;52.402;5.322;2023-09-30T13:16:15;6.00;;;2.20;;
11817;SDS011;5966;52.402;5.322;2023-09-30T13:18:44;5.53;;;2.20;;
11817;SDS011;5966;52.402;5.322;2023-09-30T13:21:14;4.33;;;1.90;;
11817;SDS011;5966;52.402;5.322;2023-09-30T13:23:44;4.47;;;2.07;;
11817;SDS011;5966;52.402;5.322;2023-09-30T13:26:12;6.17;;;2.40;;
11817;SDS011;5966;52.402;5.322;2023-09-30T13:28:40;8.77;;;2.43;;
11817;SDS011;5966;52.402;5.322;2023-09-30T13:31:08;5.47;;;2.40;;
11817;SDS011;5966;52.402;5.322;2023-09-30T13:33:37;4.83;;;2.33;;
11817;SDS011;5966;52.402;5.322;2023-09-30T13:36:06;7.27;;;2.60;;
11817;SDS011;5966;52.402;5.322;2023-09-30T13:38:38;6.17;;;2.00;;
11817;SDS011;5966;52.402;5.322;2023-09-30T13:41:07;5.30;;;2.00;;
11817;SDS011;5966;52.402;5.322;2023-09-30T13:43:35;8.47;;;2.80;;
11817;SDS011;5966;52.402;5.322;2023-09-30T13:46:03;8.33;;;2.23;;
11817;SDS011;5966;52.402;5.322;2023-09-30T13:48:33;6.97;;;2.20;;
11817;SDS011;5966;52.402;5.322;2023-09-30T13:51:05;4.00;;;1.80;;
11817;SDS011;5966;52.402;5.322;2023-09-30T13:53:34;6.43;;;2.10;;
11817;SDS011;5966;52.402;5.322;2023-09-30T13:56:06;6.87;;;2.07;;
11817;SDS011;5966;52.402;5.322;2023-09-30T13:58:35;5.73;;;2.23;;
11817;SDS011;5966;52.402;5.322;2023-09-30T14:01:03;9.70;;;3.60;;
11817;SDS011;5966;52.402;5.322;2023-09-30T14:03:37;8.97;;;4.27;;
11817;SDS011;5966;52.402;5.322;2023-09-30T14:06:10;7.80;;;2.60;;
11817;SDS011;5966;52.402;5.322;2023-09-30T14:08:39;10.07;;;2.43;;
11817;SDS011;5966;52.402;5.322;2023-09-30T14:11:10;6.70;;;2.47;;
11817;SDS011;5966;52.402;5.322;2023-09-30T14:13:40;6.17;;;2.30;;
11817;SDS011;5966;52.402;5.322;2023-09-30T14:16:09;7.33;;;3.20;;
11817;SDS011;5966;52.402;5.322;2023-09-30T14:18:39;8.03;;;2.87;;
11817;SDS011;5966;52.402;5.322;2023-09-30T14:21:10;6.93;;;2.40;;
11817;SDS011;5966;52.402;5.322;2023-09-30T14:23:38;9.83;;;2.63;;
11817;SDS011;5966;52.402;5.322;2023-09-30T14:26:07;7.13;;;2.50;;
11817;SDS011;5966;52.402;5.322;2023-09-30T14:28:39;8.90;;;2.63;;
11817;SDS011;5966;52.402;5.322;2023-09-30T14:31:08;6.37;;;2.70;;
11817;SDS011;5966;52.402;5.322;2023-09-30T14:33:37;6.43;;;2.17;;
11817;SDS011;5966;52.402;5.322;2023-09-30T14:36:06;5.23;;;2.77;;
11817;SDS011;5966;52.402;5.322;2023-09-30T14:38:35;6.07;;;2.80;;
11817;SDS011;5966;52.402;5.322;2023-09-30T14:41:06;7.50;;;2.60;;
11817;SDS011;5966;52.402;5.322;2023-09-30T14:43:35;5.27;;;2.60;;
11817;SDS011;5966;52.402;5.322;2023-09-30T14:46:06;6.17;;;2.70;;
11817;SDS011;5966;52.402;5.322;2023-09-30T14:48:38;7.90;;;2.87;;
11817;SDS011;5966;52.402;5.322;2023-09-30T14:51:10;5.37;;;2.83;;
11817;SDS011;5966;52.402;5.322;2023-09-30T14:53:40;8.77;;;3.10;;
11817;SDS011;5966;52.402;5.322;2023-09-30T14:56:14;8.37;;;2.57;;
11817;SDS011;5966;52.402;5.322;2023-09-30T14:58:44;7.87;;;2.70;;
11817;SDS011;5966;52.402;5.322;2023-09-30T15:01:17;7.30;;;3.20;;
11817;SDS011;5966;52.402;5.322;2023-09-30T15:03:48;4.53;;;2.40;;
11817;SDS011;5966;52.402;5.322;2023-09-30T15:06:16;5.67;;;2.67;;
11817;SDS011;5966;52.402;5.322;2023-09-30T15:08:45;8.43;;;2.90;;
11817;SDS011;5966;52.402;5.322;2023-09-30T15:11:14;7.63;;;2.67;;
11817;SDS011;5966;52.402;5.322;2023-09-30T15:13:43;8.97;;;2.93;;
11817;SDS011;5966;52.402;5.322;2023-09-30T15:16:18;5.40;;;3.00;;
11817;SDS011;5966;52.402;5.322;2023-09-30T15:18:48;4.67;;;2.70;;
11817;SDS011;5966;52.402;5.322;2023-09-30T15:21:17;5.47;;;3.00;;
11817;SDS011;5966;52.402;5.322;2023-09-30T15:23:46;11.30;;;3.40;;
11817;SDS011;5966;52.402;5.322;2023-09-30T15:26:15;12.03;;;3.20;;
11817;SDS011;5966;52.402;5.322;2023-09-30T15:28:46;7.57;;;2.77;;